Wetterdaten: Woche 27.05.24 - 02.06.24 (KW22)
Datum Zeit Temp. I. Temp. A. Feuchte I. Feuchte A. Luftdruck Regen Wind Richtung Sonnenschein Solar Taupunkt Windchill Windböen
27.05.2024 00:00 22,9 °C 17,2 °C 60 % 82 % 1016,6 hPa 0,0 l/m² 1,4 km/h (1 Bft) O-NO 0,00 h 0 W/m² 14,1 °C 17,2 °C 2,7 km/h (1 Bft)
27.05.2024 01:00 22,8 °C 15,5 °C 61 % 90 % 1016,7 hPa 0,0 l/m² 0,9 km/h (0 Bft) SW 0,00 h 0 W/m² 13,8 °C 15,4 °C 1,7 km/h (1 Bft)
27.05.2024 02:00 22,8 °C 15,6 °C 61 % 91 % 1016,6 hPa 0,0 l/m² 1,0 km/h (0 Bft) SW 0,00 h 0 W/m² 14,1 °C 15,6 °C 2,0 km/h (1 Bft)
27.05.2024 03:00 22,8 °C 15,8 °C 61 % 90 % 1016,5 hPa 0,0 l/m² 1,0 km/h (0 Bft) SW 0,00 h 0 W/m² 14,2 °C 15,8 °C 2,0 km/h (1 Bft)
27.05.2024 04:00 22,7 °C 15,7 °C 61 % 91 % 1016,4 hPa 0,0 l/m² 1,6 km/h (1 Bft) S-SW 0,00 h 0 W/m² 14,2 °C 15,7 °C 3,3 km/h (1 Bft)
27.05.2024 05:00 22,8 °C 15,4 °C 61 % 92 % 1016,5 hPa 0,0 l/m² 0,2 km/h (0 Bft) W-SW 0,00 h 10 W/m² 14,1 °C 15,4 °C 0,8 km/h (0 Bft)
27.05.2024 06:00 22,7 °C 15,7 °C 60 % 92 % 1016,7 hPa 0,0 l/m² 0,7 km/h (0 Bft) W-SW 0,00 h 36 W/m² 14,4 °C 15,7 °C 1,5 km/h (1 Bft)
27.05.2024 07:00 22,7 °C 16,3 °C 60 % 91 % 1017,2 hPa 0,2 l/m² 0,3 km/h (0 Bft) S-SW 0,87 h 75 W/m² 14,9 °C 16,3 °C 0,8 km/h (0 Bft)
27.05.2024 08:00 22,7 °C 17,0 °C 60 % 91 % 1017,6 hPa 0,0 l/m² 2,5 km/h (1 Bft) S-SW 1,00 h 118 W/m² 15,5 °C 17,0 °C 4,0 km/h (1 Bft)
27.05.2024 09:00 22,7 °C 17,8 °C 60 % 89 % 1017,8 hPa 0,0 l/m² 3,8 km/h (1 Bft) S-SW 1,00 h 248 W/m² 16,0 °C 17,8 °C 5,7 km/h (2 Bft)
27.05.2024 10:00 22,7 °C 19,0 °C 60 % 84 % 1017,7 hPa 0,0 l/m² 5,4 km/h (1 Bft) S-SW 1,00 h 314 W/m² 16,3 °C 18,9 °C 7,8 km/h (2 Bft)
27.05.2024 11:00 22,8 °C 20,1 °C 60 % 80 % 1017,6 hPa 0,0 l/m² 6,8 km/h (2 Bft) S-SW 1,00 h 448 W/m² 16,6 °C 19,7 °C 9,7 km/h (2 Bft)
27.05.2024 12:00 22,9 °C 20,8 °C 60 % 77 % 1017,6 hPa 0,0 l/m² 5,6 km/h (2 Bft) S-SW 1,02 h 614 W/m² 16,6 °C 20,6 °C 8,8 km/h (2 Bft)
27.05.2024 13:00 23,1 °C 21,4 °C 60 % 75 % 1017,2 hPa 0,0 l/m² 7,0 km/h (2 Bft) S-SO 1,00 h 497 W/m² 16,8 °C 21,0 °C 11,0 km/h (2 Bft)
27.05.2024 14:00 23,1 °C 22,0 °C 60 % 72 % 1016,7 hPa 0,0 l/m² 4,7 km/h (1 Bft) S-SW 1,00 h 569 W/m² 16,7 °C 22,0 °C 7,7 km/h (2 Bft)
27.05.2024 15:00 23,0 °C 22,8 °C 61 % 69 % 1016,0 hPa 0,0 l/m² 6,5 km/h (2 Bft) S 1,00 h 639 W/m² 16,8 °C 22,5 °C 9,4 km/h (2 Bft)
27.05.2024 16:00 22,9 °C 22,5 °C 61 % 69 % 1015,4 hPa 0,0 l/m² 5,1 km/h (1 Bft) SO 1,00 h 428 W/m² 16,6 °C 22,4 °C 7,9 km/h (2 Bft)
27.05.2024 17:00 22,9 °C 22,5 °C 61 % 72 % 1015,0 hPa 0,0 l/m² 5,3 km/h (1 Bft) O-SO 1,00 h 334 W/m² 17,3 °C 22,3 °C 7,8 km/h (2 Bft)
27.05.2024 18:00 22,9 °C 21,7 °C 61 % 74 % 1014,5 hPa 0,0 l/m² 0,9 km/h (0 Bft) O 1,00 h 152 W/m² 16,8 °C 21,7 °C 2,0 km/h (1 Bft)
27.05.2024 19:00 23,1 °C 21,7 °C 62 % 73 % 1014,5 hPa 0,0 l/m² 4,3 km/h (1 Bft) O 0,88 h 116 W/m² 16,6 °C 21,4 °C 8,5 km/h (2 Bft)
27.05.2024 20:00 23,2 °C 18,7 °C 61 % 81 % 1014,4 hPa 0,0 l/m² 3,8 km/h (1 Bft) NW 0,02 h 17 W/m² 15,3 °C 18,6 °C 7,7 km/h (2 Bft)
27.05.2024 21:00 23,2 °C 17,0 °C 60 % 89 % 1014,6 hPa 0,0 l/m² 0,8 km/h (0 Bft) N-NW 0,00 h 5 W/m² 15,2 °C 17,0 °C 1,7 km/h (1 Bft)
27.05.2024 22:00 23,2 °C 16,8 °C 61 % 92 % 1014,5 hPa 2,0 l/m² 1,2 km/h (1 Bft) W-SW 0,00 h 0 W/m² 15,4 °C 16,8 °C 2,3 km/h (1 Bft)
27.05.2024 23:00 23,0 °C 16,3 °C 61 % 93 % 1014,6 hPa 1,8 l/m² 3,7 km/h (1 Bft) O-NO 0,00 h 0 W/m² 15,1 °C 16,3 °C 6,2 km/h (2 Bft)
28.05.2024 00:00 22,9 °C 15,8 °C 62 % 94 % 1014,7 hPa 4,6 l/m² 2,0 km/h (1 Bft) SW 0,00 h 0 W/m² 14,7 °C 15,8 °C 4,5 km/h (1 Bft)
28.05.2024 01:00 22,9 °C 14,9 °C 62 % 94 % 1014,5 hPa 0,0 l/m² 0,7 km/h (0 Bft) W-SW 0,00 h 0 W/m² 14,0 °C 14,9 °C 1,6 km/h (1 Bft)
28.05.2024 02:00 22,9 °C 14,8 °C 61 % 95 % 1014,5 hPa 0,0 l/m² 1,6 km/h (1 Bft) W-SW 0,00 h 0 W/m² 14,0 °C 14,8 °C 3,2 km/h (1 Bft)
28.05.2024 03:00 22,9 °C 14,9 °C 61 % 95 % 1014,8 hPa 0,0 l/m² 3,3 km/h (1 Bft) W-SW 0,00 h 0 W/m² 14,1 °C 14,8 °C 7,6 km/h (2 Bft)
28.05.2024 04:00 22,8 °C 14,7 °C 61 % 95 % 1014,8 hPa 0,0 l/m² 1,3 km/h (1 Bft) W 0,00 h 0 W/m² 13,9 °C 14,7 °C 3,4 km/h (1 Bft)
28.05.2024 05:00 22,8 °C 14,6 °C 61 % 95 % 1015,2 hPa 0,0 l/m² 0,7 km/h (0 Bft) W 0,00 h 24 W/m² 13,8 °C 14,6 °C 2,1 km/h (1 Bft)
28.05.2024 06:00 22,8 °C 14,4 °C 61 % 94 % 1015,8 hPa 0,0 l/m² 1,0 km/h (0 Bft) W 0,32 h 46 W/m² 13,5 °C 14,4 °C 3,7 km/h (1 Bft)
28.05.2024 07:00 22,7 °C 14,3 °C 61 % 93 % 1016,2 hPa 0,0 l/m² 1,3 km/h (1 Bft) W 1,00 h 82 W/m² 13,1 °C 14,3 °C 3,0 km/h (1 Bft)
28.05.2024 08:00 22,8 °C 14,6 °C 61 % 92 % 1016,9 hPa 0,0 l/m² 0,4 km/h (0 Bft) W-SW 0,95 h 117 W/m² 13,3 °C 14,6 °C 1,4 km/h (1 Bft)
28.05.2024 09:00 22,8 °C 15,4 °C 60 % 90 % 1017,3 hPa 0,0 l/m² 1,0 km/h (0 Bft) W-SW 1,00 h 180 W/m² 13,7 °C 15,4 °C 1,9 km/h (1 Bft)
28.05.2024 10:00 22,8 °C 15,9 °C 61 % 86 % 1017,7 hPa 0,0 l/m² 4,5 km/h (1 Bft) W-NW 1,00 h 199 W/m² 13,6 °C 15,8 °C 7,2 km/h (2 Bft)
28.05.2024 11:00 22,8 °C 15,3 °C 60 % 88 % 1018,0 hPa 0,2 l/m² 4,1 km/h (1 Bft) NW 0,97 h 279 W/m² 13,4 °C 15,2 °C 7,4 km/h (2 Bft)
28.05.2024 12:00 23,1 °C 17,5 °C 60 % 82 % 1018,0 hPa 0,0 l/m² 4,5 km/h (1 Bft) W-SW 1,00 h 545 W/m² 14,4 °C 17,2 °C 7,8 km/h (2 Bft)
28.05.2024 13:00 23,2 °C 18,3 °C 59 % 76 % 1017,9 hPa 0,0 l/m² 6,6 km/h (2 Bft) N-NW 1,00 h 572 W/m² 13,9 °C 17,7 °C 10,3 km/h (2 Bft)
28.05.2024 14:00 23,1 °C 18,4 °C 59 % 71 % 1017,9 hPa 0,0 l/m² 8,4 km/h (2 Bft) W-SW 1,00 h 397 W/m² 13,0 °C 17,2 °C 12,6 km/h (3 Bft)
28.05.2024 15:00 23,1 °C 18,8 °C 59 % 70 % 1017,7 hPa 0,0 l/m² 5,5 km/h (2 Bft) W-NW 1,00 h 661 W/m² 13,1 °C 18,4 °C 8,6 km/h (2 Bft)
28.05.2024 16:00 23,1 °C 17,8 °C 58 % 70 % 1017,6 hPa 0,0 l/m² 11,3 km/h (2 Bft) SW 1,00 h 380 W/m² 12,1 °C 15,9 °C 15,3 km/h (3 Bft)
28.05.2024 17:00 22,9 °C 19,2 °C 59 % 65 % 1017,3 hPa 0,0 l/m² 11,4 km/h (2 Bft) W-SW 1,00 h 517 W/m² 12,4 °C 17,4 °C 15,9 km/h (3 Bft)
28.05.2024 18:00 22,9 °C 18,8 °C 58 % 64 % 1017,3 hPa 0,0 l/m² 8,2 km/h (2 Bft) SW 0,80 h 284 W/m² 11,8 °C 17,9 °C 11,8 km/h (2 Bft)
28.05.2024 19:00 22,8 °C 17,7 °C 55 % 69 % 1017,3 hPa 0,0 l/m² 5,7 km/h (2 Bft) SW 0,08 h 42 W/m² 11,9 °C 17,5 °C 8,1 km/h (2 Bft)
28.05.2024 20:00 22,8 °C 15,8 °C 53 % 74 % 1017,2 hPa 0,0 l/m² 3,5 km/h (1 Bft) W-SW 0,00 h 19 W/m² 11,1 °C 15,7 °C 5,1 km/h (1 Bft)
28.05.2024 21:00 23,0 °C 13,3 °C 55 % 84 % 1017,4 hPa 0,0 l/m² 0,0 km/h (0 Bft) S-SW 0,00 h 6 W/m² 10,6 °C 13,3 °C 0,0 km/h (0 Bft)
28.05.2024 22:00 22,8 °C 11,5 °C 56 % 88 % 1017,6 hPa 0,0 l/m² 0,2 km/h (0 Bft) S-SW 0,00 h 0 W/m² 9,6 °C 11,5 °C 0,3 km/h (0 Bft)
28.05.2024 23:00 22,7 °C 10,3 °C 57 % 91 % 1017,4 hPa 0,0 l/m² 0,2 km/h (0 Bft) SW 0,00 h 0 W/m² 8,9 °C 10,3 °C 0,5 km/h (0 Bft)
29.05.2024 00:00 22,7 °C 9,5 °C 57 % 93 % 1017,4 hPa 0,0 l/m² 1,0 km/h (0 Bft) SW 0,00 h 0 W/m² 8,4 °C 9,5 °C 2,2 km/h (1 Bft)
29.05.2024 01:00 22,7 °C 8,8 °C 58 % 93 % 1017,1 hPa 0,0 l/m² 1,3 km/h (1 Bft) S-SO 0,00 h 0 W/m² 7,8 °C 8,8 °C 2,4 km/h (1 Bft)
29.05.2024 02:00 22,6 °C 8,7 °C 58 % 94 % 1016,7 hPa 0,0 l/m² 0,3 km/h (0 Bft) SO 0,00 h 0 W/m² 7,8 °C 8,7 °C 0,8 km/h (0 Bft)
29.05.2024 03:00 22,5 °C 9,3 °C 58 % 94 % 1016,3 hPa 0,0 l/m² 0,7 km/h (0 Bft) SO 0,00 h 0 W/m² 8,4 °C 9,3 °C 1,6 km/h (1 Bft)
29.05.2024 04:00 22,4 °C 10,2 °C 58 % 95 % 1015,8 hPa 0,0 l/m² 0,4 km/h (0 Bft) O 0,00 h 0 W/m² 9,4 °C 10,2 °C 1,4 km/h (1 Bft)
29.05.2024 05:00 22,4 °C 11,1 °C 58 % 93 % 1015,3 hPa 0,0 l/m² 0,0 km/h (0 Bft) O 0,00 h 13 W/m² 10,0 °C 11,1 °C 0,1 km/h (0 Bft)
29.05.2024 06:00 22,4 °C 11,6 °C 59 % 91 % 1014,8 hPa 0,0 l/m² 1,6 km/h (1 Bft) O 0,10 h 34 W/m² 10,1 °C 11,6 °C 3,1 km/h (1 Bft)
29.05.2024 07:00 22,3 °C 12,8 °C 58 % 89 % 1014,4 hPa 0,0 l/m² 2,2 km/h (1 Bft) O 1,00 h 129 W/m² 11,1 °C 12,8 °C 3,8 km/h (1 Bft)
29.05.2024 08:00 22,3 °C 15,1 °C 58 % 83 % 1013,9 hPa 0,0 l/m² 5,2 km/h (1 Bft) SO 1,00 h 275 W/m² 12,2 °C 14,8 °C 8,5 km/h (2 Bft)
29.05.2024 09:00 22,4 °C 17,0 °C 57 % 75 % 1013,5 hPa 0,0 l/m² 9,9 km/h (2 Bft) S-SO 1,00 h 358 W/m² 12,6 °C 15,5 °C 16,3 km/h (3 Bft)
29.05.2024 10:00 22,6 °C 18,4 °C 57 % 70 % 1013,2 hPa 0,0 l/m² 12,8 km/h (3 Bft) S 0,98 h 438 W/m² 12,8 °C 16,0 °C 19,9 km/h (4 Bft)
29.05.2024 11:00 22,7 °C 19,2 °C 57 % 68 % 1013,0 hPa 0,0 l/m² 14,3 km/h (3 Bft) S 1,00 h 450 W/m² 13,1 °C 16,6 °C 21,5 km/h (4 Bft)
29.05.2024 12:00 22,6 °C 18,1 °C 57 % 75 % 1012,7 hPa 0,0 l/m² 10,4 km/h (2 Bft) S-SO 1,00 h 244 W/m² 13,6 °C 16,4 °C 15,7 km/h (3 Bft)
29.05.2024 13:00 22,6 °C 18,7 °C 57 % 77 % 1012,1 hPa 0,0 l/m² 10,9 km/h (2 Bft) SO 1,00 h 383 W/m² 14,5 °C 17,0 °C 16,6 km/h (3 Bft)
29.05.2024 14:00 22,5 °C 17,8 °C 57 % 78 % 1011,9 hPa 0,0 l/m² 10,4 km/h (2 Bft) S-SO 1,00 h 128 W/m² 13,9 °C 16,1 °C 16,8 km/h (3 Bft)
29.05.2024 15:00 22,4 °C 17,9 °C 58 % 78 % 1011,5 hPa 0,0 l/m² 13,7 km/h (3 Bft) S 1,00 h 238 W/m² 14,1 °C 15,1 °C 20,5 km/h (4 Bft)
29.05.2024 16:00 22,4 °C 17,3 °C 58 % 83 % 1011,2 hPa 0,2 l/m² 12,9 km/h (3 Bft) S 1,02 h 276 W/m² 14,4 °C 14,7 °C 20,2 km/h (4 Bft)
29.05.2024 17:00 22,5 °C 18,5 °C 58 % 79 % 1010,3 hPa 0,0 l/m² 12,5 km/h (2 Bft) S 0,98 h 242 W/m² 14,9 °C 16,2 °C 19,0 km/h (3 Bft)
29.05.2024 18:00 22,5 °C 17,9 °C 59 % 83 % 1009,7 hPa 0,0 l/m² 8,7 km/h (2 Bft) S-SO 1,02 h 126 W/m² 14,9 °C 16,8 °C 14,0 km/h (3 Bft)
29.05.2024 19:00 22,6 °C 17,9 °C 60 % 81 % 1009,5 hPa 0,0 l/m² 8,5 km/h (2 Bft) S 0,73 h 60 W/m² 14,6 °C 16,9 °C 13,2 km/h (3 Bft)
29.05.2024 20:00 22,4 °C 17,6 °C 60 % 81 % 1009,3 hPa 0,0 l/m² 3,1 km/h (1 Bft) S 0,37 h 36 W/m² 14,2 °C 17,6 °C 5,2 km/h (1 Bft)
29.05.2024 21:00 22,3 °C 15,8 °C 60 % 86 % 1009,2 hPa 0,0 l/m² 5,2 km/h (1 Bft) S-SO 0,00 h 5 W/m² 13,4 °C 15,7 °C 7,7 km/h (2 Bft)
29.05.2024 22:00 22,4 °C 15,0 °C 60 % 88 % 1009,0 hPa 0,0 l/m² 3,6 km/h (1 Bft) S 0,00 h 0 W/m² 13,0 °C 14,9 °C 6,4 km/h (2 Bft)
29.05.2024 23:00 22,3 °C 14,1 °C 60 % 89 % 1008,9 hPa 0,0 l/m² 2,6 km/h (1 Bft) S 0,00 h 0 W/m² 12,4 °C 14,1 °C 4,5 km/h (1 Bft)
30.05.2024 00:00 22,2 °C 13,7 °C 60 % 91 % 1008,5 hPa 0,0 l/m² 1,3 km/h (1 Bft) O 0,00 h 0 W/m² 12,2 °C 13,7 °C 2,8 km/h (1 Bft)
30.05.2024 01:00 22,2 °C 14,3 °C 60 % 90 % 1008,2 hPa 0,0 l/m² 0,5 km/h (0 Bft) O 0,00 h 0 W/m² 12,6 °C 14,3 °C 1,0 km/h (0 Bft)
30.05.2024 02:00 22,1 °C 12,9 °C 60 % 91 % 1007,5 hPa 0,0 l/m² 1,0 km/h (0 Bft) NO 0,00 h 0 W/m² 11,6 °C 12,9 °C 1,9 km/h (1 Bft)
30.05.2024 03:00 22,1 °C 12,5 °C 60 % 94 % 1007,1 hPa 0,0 l/m² 0,9 km/h (0 Bft) O-NO 0,00 h 0 W/m² 11,5 °C 12,5 °C 2,2 km/h (1 Bft)
30.05.2024 04:00 22,1 °C 12,5 °C 60 % 93 % 1006,7 hPa 0,0 l/m² 0,3 km/h (0 Bft) O-NO 0,00 h 0 W/m² 11,5 °C 12,5 °C 1,0 km/h (0 Bft)
30.05.2024 05:00 22,1 °C 12,3 °C 60 % 94 % 1006,4 hPa 0,0 l/m² 0,5 km/h (0 Bft) O-NO 0,00 h 26 W/m² 11,4 °C 12,3 °C 1,0 km/h (0 Bft)
30.05.2024 06:00 22,1 °C 13,4 °C 60 % 95 % 1006,1 hPa 0,0 l/m² 0,5 km/h (0 Bft) O-NO 0,90 h 110 W/m² 12,6 °C 13,4 °C 1,3 km/h (1 Bft)
30.05.2024 07:00 22,1 °C 15,4 °C 60 % 91 % 1005,9 hPa 0,0 l/m² 0,9 km/h (0 Bft) O-NO 1,00 h 195 W/m² 13,9 °C 15,4 °C 1,6 km/h (1 Bft)
30.05.2024 08:00 22,1 °C 16,6 °C 60 % 87 % 1005,7 hPa 0,0 l/m² 0,8 km/h (0 Bft) S-SO 1,00 h 259 W/m² 14,4 °C 16,6 °C 2,1 km/h (1 Bft)
30.05.2024 09:00 22,2 °C 17,7 °C 59 % 83 % 1005,5 hPa 0,0 l/m² 1,8 km/h (1 Bft) W 1,00 h 371 W/m² 14,7 °C 17,7 °C 3,7 km/h (1 Bft)
30.05.2024 10:00 22,1 °C 17,2 °C 59 % 85 % 1005,2 hPa 0,2 l/m² 0,6 km/h (0 Bft) W 1,00 h 171 W/m² 14,7 °C 17,2 °C 1,9 km/h (1 Bft)
30.05.2024 11:00 22,1 °C 17,5 °C 59 % 87 % 1005,0 hPa 0,0 l/m² 3,2 km/h (1 Bft) W 1,00 h 273 W/m² 15,3 °C 17,5 °C 5,2 km/h (1 Bft)
30.05.2024 12:00 22,1 °C 16,9 °C 59 % 89 % 1004,8 hPa 0,6 l/m² 5,7 km/h (2 Bft) O 1,00 h 142 W/m² 15,1 °C 16,8 °C 8,3 km/h (2 Bft)
30.05.2024 13:00 22,1 °C 16,7 °C 59 % 93 % 1004,4 hPa 2,0 l/m² 3,9 km/h (1 Bft) O-NO 1,00 h 227 W/m² 15,5 °C 16,7 °C 6,9 km/h (2 Bft)
30.05.2024 14:00 22,1 °C 17,7 °C 60 % 91 % 1004,0 hPa 0,0 l/m² 4,5 km/h (1 Bft) O-NO 1,00 h 420 W/m² 16,2 °C 17,6 °C 7,6 km/h (2 Bft)
30.05.2024 15:00 22,3 °C 18,3 °C 60 % 87 % 1003,6 hPa 0,0 l/m² 7,1 km/h (2 Bft) O 1,00 h 303 W/m² 16,0 °C 17,8 °C 11,1 km/h (2 Bft)
30.05.2024 16:00 22,2 °C 17,2 °C 60 % 90 % 1003,2 hPa 2,4 l/m² 7,0 km/h (2 Bft) O 0,70 h 102 W/m² 15,5 °C 16,6 °C 11,0 km/h (2 Bft)
30.05.2024 17:00 22,1 °C 16,3 °C 61 % 93 % 1003,2 hPa 1,6 l/m² 0,9 km/h (0 Bft) O-SO 1,00 h 86 W/m² 15,1 °C 16,3 °C 1,8 km/h (1 Bft)
30.05.2024 18:00 22,1 °C 16,0 °C 61 % 93 % 1003,3 hPa 0,4 l/m² 2,3 km/h (1 Bft) W-NW 0,75 h 82 W/m² 14,7 °C 16,0 °C 6,9 km/h (2 Bft)
30.05.2024 19:00 22,1 °C 15,3 °C 62 % 94 % 1003,7 hPa 3,4 l/m² 0,8 km/h (0 Bft) W-NW 0,00 h 24 W/m² 14,3 °C 15,3 °C 2,7 km/h (1 Bft)
30.05.2024 20:00 22,1 °C 15,0 °C 62 % 95 % 1003,9 hPa 1,0 l/m² 0,2 km/h (0 Bft) W-NW 0,00 h 8 W/m² 14,1 °C 15,0 °C 1,4 km/h (1 Bft)
30.05.2024 21:00 22,1 °C 14,9 °C 63 % 95 % 1004,0 hPa 0,4 l/m² 0,4 km/h (0 Bft) W 0,00 h 0 W/m² 14,1 °C 14,9 °C 1,4 km/h (1 Bft)
30.05.2024 22:00 22,1 °C 14,5 °C 63 % 95 % 1004,2 hPa 0,0 l/m² 0,7 km/h (0 Bft) W 0,00 h 0 W/m² 13,7 °C 14,5 °C 2,1 km/h (1 Bft)
30.05.2024 23:00 21,9 °C 14,5 °C 63 % 96 % 1004,5 hPa 0,2 l/m² 3,2 km/h (1 Bft) W 0,00 h 0 W/m² 13,8 °C 14,5 °C 6,0 km/h (2 Bft)
31.05.2024 00:00 21,7 °C 14,2 °C 63 % 95 % 1004,6 hPa 0,0 l/m² 2,6 km/h (1 Bft) W 0,00 h 0 W/m² 13,4 °C 14,2 °C 5,2 km/h (1 Bft)
31.05.2024 01:00 21,7 °C 13,9 °C 62 % 96 % 1004,8 hPa 0,0 l/m² 3,3 km/h (1 Bft) W-SW 0,00 h 0 W/m² 13,2 °C 13,9 °C 5,3 km/h (1 Bft)
31.05.2024 02:00 21,7 °C 13,0 °C 62 % 95 % 1005,3 hPa 0,0 l/m² 2,9 km/h (1 Bft) SW 0,00 h 0 W/m² 12,2 °C 13,0 °C 4,5 km/h (1 Bft)
31.05.2024 03:00 21,6 °C 12,9 °C 62 % 95 % 1005,5 hPa 0,0 l/m² 0,4 km/h (0 Bft) N 0,00 h 0 W/m² 12,2 °C 12,9 °C 1,3 km/h (1 Bft)
31.05.2024 04:00 21,6 °C 12,3 °C 62 % 95 % 1005,5 hPa 0,0 l/m² 0,7 km/h (0 Bft) W-SW 0,00 h 0 W/m² 11,5 °C 12,3 °C 1,7 km/h (1 Bft)
31.05.2024 05:00 21,6 °C 12,2 °C 62 % 95 % 1005,8 hPa 0,0 l/m² 0,1 km/h (0 Bft) W-SW 0,00 h 18 W/m² 11,4 °C 12,2 °C 0,8 km/h (0 Bft)
31.05.2024 06:00 21,7 °C 12,6 °C 62 % 96 % 1006,3 hPa 0,0 l/m² 2,8 km/h (1 Bft) SW 0,68 h 90 W/m² 12,0 °C 12,6 °C 5,0 km/h (1 Bft)
31.05.2024 07:00 21,7 °C 14,4 °C 62 % 94 % 1006,8 hPa 0,0 l/m² 3,8 km/h (1 Bft) SW 1,02 h 225 W/m² 13,5 °C 14,3 °C 7,3 km/h (2 Bft)
31.05.2024 08:00 21,7 °C 16,1 °C 62 % 87 % 1007,2 hPa 0,0 l/m² 8,4 km/h (2 Bft) W 1,00 h 355 W/m² 13,9 °C 15,0 °C 14,4 km/h (3 Bft)
31.05.2024 09:00 21,7 °C 17,2 °C 61 % 82 % 1007,3 hPa 0,0 l/m² 8,6 km/h (2 Bft) W-SW 1,00 h 373 W/m² 14,1 °C 16,2 °C 14,6 km/h (3 Bft)
31.05.2024 10:00 21,7 °C 17,6 °C 61 % 80 % 1007,7 hPa 0,0 l/m² 8,4 km/h (2 Bft) W 1,00 h 430 W/m² 14,1 °C 16,6 °C 15,9 km/h (3 Bft)
31.05.2024 11:00 21,7 °C 18,0 °C 61 % 78 % 1008,1 hPa 0,0 l/m² 7,2 km/h (2 Bft) NW 1,00 h 397 W/m² 14,0 °C 17,4 °C 14,5 km/h (3 Bft)
31.05.2024 12:00 21,7 °C 17,9 °C 61 % 79 % 1008,6 hPa 0,0 l/m² 4,8 km/h (1 Bft) NW 0,98 h 311 W/m² 14,2 °C 17,7 °C 9,6 km/h (2 Bft)
31.05.2024 13:00 21,7 °C 18,7 °C 61 % 76 % 1008,6 hPa 0,0 l/m² 5,8 km/h (2 Bft) NW 1,00 h 312 W/m² 14,4 °C 18,5 °C 10,0 km/h (2 Bft)
31.05.2024 14:00 21,7 °C 17,7 °C 61 % 80 % 1008,8 hPa 0,0 l/m² 5,6 km/h (2 Bft) N-NW 1,00 h 126 W/m² 14,2 °C 17,6 °C 9,7 km/h (2 Bft)
31.05.2024 15:00 21,8 °C 18,4 °C 61 % 75 % 1008,5 hPa 0,0 l/m² 5,5 km/h (2 Bft) W-NW 1,02 h 285 W/m² 13,9 °C 18,3 °C 10,8 km/h (2 Bft)
31.05.2024 16:00 21,8 °C 19,3 °C 61 % 74 % 1008,7 hPa 0,0 l/m² 5,2 km/h (1 Bft) NW 1,00 h 310 W/m² 14,4 °C 19,1 °C 9,8 km/h (2 Bft)
31.05.2024 17:00 21,8 °C 19,4 °C 61 % 75 % 1008,6 hPa 0,0 l/m² 6,6 km/h (2 Bft) W-NW 1,00 h 282 W/m² 14,7 °C 18,8 °C 12,5 km/h (2 Bft)
31.05.2024 18:00 21,9 °C 18,6 °C 65 % 78 % 1008,8 hPa 0,0 l/m² 6,3 km/h (2 Bft) W 1,00 h 173 W/m² 14,6 °C 18,3 °C 12,3 km/h (2 Bft)
31.05.2024 19:00 22,2 °C 17,8 °C 66 % 81 % 1009,1 hPa 0,0 l/m² 4,8 km/h (1 Bft) NW 1,00 h 85 W/m² 14,4 °C 17,7 °C 9,5 km/h (2 Bft)
31.05.2024 20:00 22,1 °C 16,5 °C 64 % 85 % 1009,4 hPa 0,0 l/m² 2,7 km/h (1 Bft) W 0,10 h 30 W/m² 14,1 °C 16,5 °C 5,2 km/h (1 Bft)
31.05.2024 21:00 22,2 °C 15,0 °C 64 % 90 % 1009,6 hPa 0,0 l/m² 1,0 km/h (0 Bft) W-SW 0,00 h 5 W/m² 13,3 °C 15,0 °C 2,7 km/h (1 Bft)
31.05.2024 22:00 22,1 °C 14,7 °C 64 % 92 % 1010,0 hPa 0,0 l/m² 2,1 km/h (1 Bft) W-NW 0,00 h 0 W/m² 13,3 °C 14,7 °C 6,3 km/h (2 Bft)
31.05.2024 23:00 21,9 °C 14,9 °C 63 % 92 % 1009,8 hPa 0,0 l/m² 2,0 km/h (1 Bft) W-NW 0,00 h 0 W/m² 13,5 °C 14,9 °C 5,4 km/h (1 Bft)
01.06.2024 00:00 21,8 °C 15,2 °C 63 % 92 % 1009,6 hPa 0,0 l/m² 3,6 km/h (1 Bft) W-NW 0,00 h 0 W/m² 13,9 °C 15,2 °C 8,2 km/h (2 Bft)
01.06.2024 01:00 21,8 °C 15,4 °C 63 % 92 % 1009,6 hPa 0,2 l/m² 3,8 km/h (1 Bft) W-NW 0,00 h 0 W/m² 14,1 °C 15,3 °C 7,7 km/h (2 Bft)
01.06.2024 02:00 21,8 °C 15,3 °C 63 % 93 % 1009,3 hPa 0,0 l/m² 5,2 km/h (1 Bft) W-NW 0,00 h 0 W/m² 14,2 °C 15,1 °C 10,4 km/h (2 Bft)
01.06.2024 03:00 21,7 °C 15,2 °C 63 % 94 % 1009,1 hPa 0,0 l/m² 3,4 km/h (1 Bft) NW 0,00 h 0 W/m² 14,2 °C 15,1 °C 9,0 km/h (2 Bft)
01.06.2024 04:00 21,7 °C 15,2 °C 63 % 94 % 1009,0 hPa 0,0 l/m² 3,6 km/h (1 Bft) NW 0,00 h 0 W/m² 14,3 °C 15,2 °C 10,2 km/h (2 Bft)
01.06.2024 05:00 21,6 °C 15,4 °C 62 % 94 % 1009,1 hPa 0,0 l/m² 5,7 km/h (2 Bft) W-NW 0,00 h 12 W/m² 14,5 °C 15,2 °C 13,9 km/h (3 Bft)
01.06.2024 06:00 21,6 °C 15,9 °C 62 % 94 % 1009,3 hPa 0,2 l/m² 7,0 km/h (2 Bft) NW 0,18 h 43 W/m² 14,9 °C 15,1 °C 14,0 km/h (3 Bft)
01.06.2024 07:00 21,6 °C 16,2 °C 62 % 94 % 1009,4 hPa 0,2 l/m² 5,3 km/h (1 Bft) W-NW 0,80 h 78 W/m² 15,2 °C 15,7 °C 11,6 km/h (2 Bft)
01.06.2024 08:00 21,7 °C 16,9 °C 64 % 94 % 1009,9 hPa 0,0 l/m² 8,8 km/h (2 Bft) NW 1,00 h 164 W/m² 15,8 °C 15,6 °C 16,2 km/h (3 Bft)
01.06.2024 09:00 21,8 °C 18,1 °C 65 % 90 % 1010,3 hPa 0,0 l/m² 9,9 km/h (2 Bft) N-NW 1,00 h 253 W/m² 16,4 °C 16,5 °C 17,1 km/h (3 Bft)
01.06.2024 10:00 22,1 °C 20,1 °C 65 % 85 % 1010,2 hPa 0,0 l/m² 16,5 km/h (3 Bft) N-NW 1,00 h 693 W/m² 17,6 °C 17,2 °C 24,6 km/h (4 Bft)
01.06.2024 11:00 22,4 °C 21,8 °C 65 % 82 % 1010,3 hPa 0,0 l/m² 17,4 km/h (3 Bft) NW 1,00 h 805 W/m² 18,5 °C 19,0 °C 25,8 km/h (4 Bft)
01.06.2024 12:00 22,7 °C 23,0 °C 66 % 78 % 1010,2 hPa 0,0 l/m² 16,8 km/h (3 Bft) N-NW 1,00 h 845 W/m² 19,0 °C 20,6 °C 25,2 km/h (4 Bft)
01.06.2024 13:00 22,7 °C 24,1 °C 66 % 74 % 1010,0 hPa 0,0 l/m² 15,2 km/h (3 Bft) NW 1,00 h 922 W/m² 19,2 °C 22,2 °C 22,8 km/h (4 Bft)
01.06.2024 14:00 22,6 °C 25,0 °C 66 % 68 % 1009,4 hPa 0,0 l/m² 15,7 km/h (3 Bft) N-NW 1,00 h 816 W/m² 18,6 °C 23,2 °C 23,7 km/h (4 Bft)
01.06.2024 15:00 22,6 °C 25,4 °C 65 % 64 % 1009,8 hPa 1,8 l/m² 14,8 km/h (3 Bft) N-NW 1,00 h 670 W/m² 18,1 °C 23,9 °C 23,3 km/h (4 Bft)
01.06.2024 16:00 22,7 °C 21,0 °C 66 % 84 % 1010,0 hPa 1,2 l/m² 6,2 km/h (2 Bft) N-NW 1,00 h 272 W/m² 18,3 °C 20,7 °C 9,4 km/h (2 Bft)
01.06.2024 17:00 22,8 °C 19,7 °C 66 % 83 % 1010,8 hPa 0,6 l/m² 11,8 km/h (2 Bft) N 0,40 h 73 W/m² 16,8 °C 18,1 °C 17,2 km/h (3 Bft)
01.06.2024 18:00 22,9 °C 18,4 °C 67 % 90 % 1011,0 hPa 0,2 l/m² 2,8 km/h (1 Bft) W-NW 0,58 h 62 W/m² 16,8 °C 18,4 °C 6,4 km/h (2 Bft)
01.06.2024 19:00 22,8 °C 18,5 °C 67 % 91 % 1011,6 hPa 0,0 l/m² 2,9 km/h (1 Bft) W 0,00 h 16 W/m² 17,0 °C 18,5 °C 6,1 km/h (2 Bft)
01.06.2024 20:00 22,6 °C 17,7 °C 67 % 90 % 1011,8 hPa 0,0 l/m² 6,0 km/h (2 Bft) W-NW 0,00 h 10 W/m² 16,0 °C 17,3 °C 11,5 km/h (2 Bft)
01.06.2024 21:00 22,4 °C 17,0 °C 66 % 90 % 1012,3 hPa 0,0 l/m² 3,2 km/h (1 Bft) W 0,00 h 6 W/m² 15,4 °C 17,0 °C 6,8 km/h (2 Bft)
01.06.2024 22:00 22,4 °C 16,7 °C 66 % 90 % 1012,7 hPa 0,0 l/m² 5,0 km/h (1 Bft) NW 0,00 h 0 W/m² 15,0 °C 16,6 °C 10,2 km/h (2 Bft)
01.06.2024 23:00 22,3 °C 16,6 °C 66 % 90 % 1013,0 hPa 0,0 l/m² 5,4 km/h (2 Bft) W-NW 0,00 h 0 W/m² 15,0 °C 16,5 °C 11,7 km/h (2 Bft)
02.06.2024 00:00 22,2 °C 16,6 °C 65 % 90 % 1013,3 hPa 0,0 l/m² 5,5 km/h (2 Bft) NW 0,00 h 0 W/m² 14,9 °C 16,4 °C 11,2 km/h (2 Bft)
02.06.2024 01:00 22,2 °C 16,2 °C 65 % 91 % 1013,3 hPa 0,0 l/m² 4,3 km/h (1 Bft) NW 0,00 h 0 W/m² 14,7 °C 16,2 °C 10,1 km/h (2 Bft)
02.06.2024 02:00 22,1 °C 15,9 °C 65 % 91 % 1013,4 hPa 0,0 l/m² 4,8 km/h (1 Bft) NW 0,00 h 0 W/m² 14,5 °C 15,8 °C 10,0 km/h (2 Bft)
02.06.2024 03:00 22,1 °C 15,8 °C 65 % 92 % 1013,5 hPa 0,0 l/m² 4,5 km/h (1 Bft) W-NW 0,00 h 0 W/m² 14,5 °C 15,8 °C 10,4 km/h (2 Bft)
02.06.2024 04:00 22,1 °C 15,8 °C 65 % 93 % 1013,6 hPa 0,4 l/m² 3,5 km/h (1 Bft) W 0,00 h 0 W/m² 14,6 °C 15,8 °C 10,0 km/h (2 Bft)
02.06.2024 05:00 22,1 °C 16,1 °C 65 % 92 % 1014,2 hPa 0,0 l/m² 5,9 km/h (2 Bft) W 0,00 h 11 W/m² 14,9 °C 15,8 °C 12,9 km/h (3 Bft)
02.06.2024 06:00 22,0 °C 16,6 °C 65 % 93 % 1014,6 hPa 0,4 l/m² 7,4 km/h (2 Bft) W-NW 0,35 h 57 W/m² 15,5 °C 15,9 °C 15,7 km/h (3 Bft)
02.06.2024 07:00 21,9 °C 17,7 °C 65 % 93 % 1014,8 hPa 0,0 l/m² 10,2 km/h (2 Bft) NW 1,00 h 216 W/m² 16,5 °C 16,1 °C 18,7 km/h (3 Bft)
02.06.2024 08:00 22,0 °C 18,5 °C 66 % 90 % 1015,4 hPa 0,4 l/m² 10,9 km/h (2 Bft) W-NW 1,00 h 201 W/m² 16,9 °C 16,8 °C 19,6 km/h (3 Bft)
02.06.2024 09:00 22,2 °C 18,4 °C 67 % 92 % 1015,9 hPa 1,2 l/m² 10,5 km/h (2 Bft) NW 1,00 h 265 W/m² 17,1 °C 16,8 °C 18,4 km/h (3 Bft)
02.06.2024 10:00 22,3 °C 18,5 °C 67 % 90 % 1016,1 hPa 0,0 l/m² 10,9 km/h (2 Bft) W-NW 1,00 h 236 W/m² 16,9 °C 16,8 °C 19,1 km/h (3 Bft)
02.06.2024 11:00 22,4 °C 17,7 °C 68 % 89 % 1016,5 hPa 0,0 l/m² 12,0 km/h (2 Bft) W-NW 1,00 h 167 W/m² 15,9 °C 15,5 °C 20,7 km/h (4 Bft)
02.06.2024 12:00 22,4 °C 17,4 °C 67 % 89 % 1017,0 hPa 0,0 l/m² 11,8 km/h (2 Bft) W-NW 1,00 h 252 W/m² 15,5 °C 15,2 °C 20,0 km/h (4 Bft)
02.06.2024 13:00 22,4 °C 17,0 °C 67 % 89 % 1017,2 hPa 0,0 l/m² 10,9 km/h (2 Bft) W 1,00 h 212 W/m² 15,2 °C 15,1 °C 18,7 km/h (3 Bft)
02.06.2024 14:00 22,4 °C 17,1 °C 66 % 88 % 1017,1 hPa 0,0 l/m² 12,0 km/h (2 Bft) W 1,00 h 242 W/m² 15,1 °C 14,8 °C 19,6 km/h (3 Bft)
02.06.2024 15:00 22,4 °C 17,1 °C 66 % 87 % 1017,2 hPa 0,0 l/m² 10,8 km/h (2 Bft) W-NW 1,00 h 195 W/m² 14,9 °C 15,2 °C 18,9 km/h (3 Bft)
02.06.2024 16:00 22,5 °C 18,1 °C 65 % 82 % 1017,1 hPa 0,0 l/m² 12,3 km/h (2 Bft) W-NW 1,00 h 348 W/m² 15,0 °C 15,9 °C 20,8 km/h (4 Bft)
02.06.2024 17:00 22,3 °C 18,0 °C 65 % 81 % 1017,1 hPa 0,0 l/m² 11,8 km/h (2 Bft) W-NW 1,00 h 217 W/m² 14,6 °C 15,8 °C 19,5 km/h (3 Bft)
02.06.2024 18:00 22,3 °C 16,8 °C 65 % 83 % 1017,5 hPa 0,0 l/m² 10,2 km/h (2 Bft) W-NW 0,87 h 78 W/m² 13,8 °C 15,1 °C 18,5 km/h (3 Bft)
02.06.2024 19:00 22,4 °C 16,2 °C 66 % 84 % 1017,9 hPa 0,0 l/m² 8,2 km/h (2 Bft) W-NW 0,07 h 32 W/m² 13,5 °C 15,2 °C 14,7 km/h (3 Bft)
02.06.2024 20:00 22,6 °C 15,8 °C 66 % 86 % 1018,1 hPa 0,0 l/m² 7,1 km/h (2 Bft) W 0,00 h 12 W/m² 13,4 °C 15,2 °C 12,8 km/h (3 Bft)
02.06.2024 21:00 22,6 °C 15,6 °C 66 % 85 % 1018,4 hPa 0,0 l/m² 6,0 km/h (2 Bft) W-NW 0,00 h 0 W/m² 13,1 °C 15,3 °C 12,3 km/h (2 Bft)
02.06.2024 22:00 22,5 °C 15,3 °C 65 % 84 % 1018,4 hPa 0,0 l/m² 6,3 km/h (2 Bft) W 0,00 h 0 W/m² 12,7 °C 14,9 °C 12,7 km/h (3 Bft)
02.06.2024 23:00 22,2 °C 15,0 °C 66 % 84 % 1018,7 hPa 0,0 l/m² 4,9 km/h (1 Bft) W 0,00 h 0 W/m² 12,4 °C 14,9 °C 9,8 km/h (2 Bft)
Min-Datum _ 01.06.24 29.05.24 28.05.24 28.05.24 30.05.24 - 01.06.24 - - - 29.05.24 29.05.24 01.06.24
_ Min-Zeit 07:14 02:28 20:13 18:01 18:24 - 21:35 - - - 02:28 02:28 21:35
Minimum _ 21,5 °C 8,5 °C 51 % 59 % 1003,0 hPa - 0,0 km/h (0 Bft) - - - 7,4 °C 8,5 °C 0,0 km/h (0 Bft)
Max-Datum _ 28.05.24 01.06.24 31.05.24 31.05.24 02.06.24 28.05.24 01.06.24 - 27.05.24 28.05.24 01.06.24 01.06.24 29.05.24
_ Max-Zeit 13:13 15:18 19:01 07:00 23:38 00:23 17:14 - 18:25 12:48 12:55 15:16 16:06
Maximum _ 23,3 °C 26,2 °C 69 % 96 % 1018,9 hPa 4,6 l/m² 28,0 km/h
N (5 Bft)
- 0,12 h 1176 W/m² 19,7 °C 25,4 °C 38,6 km/h
S-SO (6 Bft)
Durchschnitt _ 22,4 °C 16,5 °C 62 % 86 % 1012,1 hPa #28,0 l/m² 5,1 km/h (1 Bft) W #87:30 h 164 W/m² 14,2 °C 16,0 °C 9,0 km/h (2 Bft)
© 2009 Mathias Hoßbach